Archer, Illinois
Current Conditions -  °F | °C
As of 2:52 PM on Saturday 20 Dec 2014 (Local Time) from KSPI Reporting Station
Overcast Overcast  
Wind Chill: 38°   Ceiling: 3400
Heat Index: 38°   Visibility: 10mi
Dew Point: 30°   Wind: 3mph
Humidity: 73%   Direction: 150°SSE
Pressure: 30.22"   Gusts: NA
Location:  39.854°N, 89.6295°W
Report Text: KSPI 202052Z 15003KT 10SM OVC034 03/M01 A3022 RMK AO2 SLP240 T00331011 56012
Loading
Personal Weather Stations






























Interactive Weather Map New forecast layout! Learn more

10-Day Weather Forecast

Advertisements
Track Severe Weather on mobile